createdAt,value
2019-03-15T00:00:55.675Z,95240.42
2019-03-15T00:03:21.994Z,95234.59
2019-03-15T00:05:48.643Z,95230.10
2019-03-15T00:08:15.135Z,95232.38
2019-03-15T00:10:41.498Z,95225.53
2019-03-15T00:13:08.154Z,95212.41
2019-03-15T00:15:34.553Z,95218.72
2019-03-15T00:18:00.878Z,95211.09
2019-03-15T00:20:27.264Z,95211.20
2019-03-15T00:22:53.879Z,95217.14
2019-03-15T00:25:20.274Z,95221.97
2019-03-15T00:27:46.595Z,95235.09
2019-03-15T00:30:13.696Z,95221.86
2019-03-15T00:32:40.329Z,95226.01
2019-03-15T00:35:07.214Z,95228.14
2019-03-15T00:37:33.550Z,95228.78
2019-03-15T00:39:59.837Z,95229.01
2019-03-15T00:42:26.365Z,95220.03
2019-03-15T00:44:52.773Z,95211.81
2019-03-15T00:47:19.223Z,95219.78
2019-03-15T00:49:45.610Z,95218.44
2019-03-15T00:52:11.914Z,95221.91
2019-03-15T00:54:38.438Z,95214.84
2019-03-15T00:57:04.925Z,95215.30
2019-03-15T00:59:31.435Z,95211.37
2019-03-15T01:01:58.161Z,95203.18
2019-03-15T01:04:24.773Z,95201.19
2019-03-15T01:06:51.387Z,95200.52
2019-03-15T01:09:17.771Z,95195.39
2019-03-15T01:11:45.718Z,95184.52
2019-03-15T01:14:12.245Z,95190.70
2019-03-15T01:16:38.578Z,95192.30
2019-03-15T01:19:05.069Z,95188.16
2019-03-15T01:21:31.391Z,95190.75
2019-03-15T01:23:57.902Z,95187.39
2019-03-15T01:26:24.295Z,95189.18
2019-03-15T01:28:50.662Z,95202.20
2019-03-15T01:31:17.175Z,95195.03
2019-03-15T01:33:43.613Z,95185.72
2019-03-15T01:36:09.996Z,95190.32
2019-03-15T01:38:36.324Z,95196.82
2019-03-15T01:41:02.613Z,95188.55
2019-03-15T01:43:28.950Z,95195.47
2019-03-15T01:45:55.881Z,95187.41
2019-03-15T01:48:22.270Z,95185.50
2019-03-15T01:50:48.671Z,95182.61
2019-03-15T01:53:15.186Z,95190.09
2019-03-15T01:55:41.639Z,95182.72
2019-03-15T01:58:08.127Z,95183.17
2019-03-15T02:00:34.726Z,95180.03
2019-03-15T02:03:02.391Z,95187.88
2019-03-15T02:05:29.323Z,95191.34
2019-03-15T02:07:55.706Z,95196.63
2019-03-15T02:10:22.628Z,95189.34
2019-03-15T02:12:49.178Z,95192.22
2019-03-15T02:15:15.703Z,95189.34
2019-03-15T02:17:42.266Z,95204.89
2019-03-15T02:20:09.191Z,95201.22
2019-03-15T02:22:35.746Z,95206.14
2019-03-15T02:25:02.542Z,95202.78
2019-03-15T02:27:28.987Z,95209.83
2019-03-15T02:29:55.510Z,95207.84
2019-03-15T02:32:21.914Z,95210.08
2019-03-15T02:34:48.321Z,95217.13
2019-03-15T02:37:14.720Z,95218.84
2019-03-15T02:39:41.225Z,95220.19
2019-03-15T02:42:07.726Z,95226.23
2019-03-15T02:44:34.153Z,95219.38
2019-03-15T02:47:00.606Z,95219.16
2019-03-15T02:49:27.067Z,95225.45
2019-03-15T02:51:53.532Z,95237.09
2019-03-15T02:54:21.722Z,95222.41
2019-03-15T02:56:48.062Z,95243.03
2019-03-15T02:59:14.702Z,95232.28
2019-03-15T03:01:41.211Z,95241.23
2019-03-15T03:04:08.117Z,95233.30
2019-03-15T03:06:34.979Z,95241.70
2019-03-15T03:09:01.402Z,95249.08
2019-03-15T03:11:27.785Z,95248.98
2019-03-15T03:13:54.233Z,95254.45
2019-03-15T03:16:20.719Z,95252.66
2019-03-15T03:18:47.107Z,95261.61
2019-03-15T03:21:15.153Z,95261.19
2019-03-15T03:23:41.608Z,95270.92
2019-03-15T03:26:08.051Z,95264.53
2019-03-15T03:28:34.431Z,95265.88
2019-03-15T03:31:00.934Z,95267.22
2019-03-15T03:33:27.496Z,95270.69
2019-03-15T03:35:53.827Z,95277.52
2019-03-15T03:38:20.394Z,95284.45
2019-03-15T03:40:46.764Z,95282.78
2019-03-15T03:43:13.116Z,95286.72
2019-03-15T03:45:39.402Z,95290.75
2019-03-15T03:48:05.871Z,95286.72
2019-03-15T03:50:32.307Z,95294.78
2019-03-15T03:52:59.078Z,95294.55
2019-03-15T03:55:25.839Z,95292.98
2019-03-15T03:57:52.331Z,95305.41
2019-03-15T04:00:18.887Z,95301.70
2019-03-15T04:02:45.416Z,95303.60
2019-03-15T04:05:12.143Z,95308.78
2019-03-15T04:07:38.780Z,95313.92
2019-03-15T04:10:08.823Z,95315.36
2019-03-15T04:12:35.316Z,95314.91
2019-03-15T04:15:04.306Z,95316.25
2019-03-15T04:17:30.999Z,95318.70
2019-03-15T04:19:57.284Z,95326.77
2019-03-15T04:22:23.821Z,95328.80
2019-03-15T04:24:50.305Z,95335.84
2019-03-15T04:27:16.755Z,95333.48
2019-03-15T04:29:43.198Z,95338.62
2019-03-15T04:32:09.628Z,95344.23
2019-03-15T04:34:35.916Z,95353.08
2019-03-15T04:37:02.489Z,95348.25
2019-03-15T04:39:28.873Z,95356.31
2019-03-15T04:41:55.399Z,95357.43
2019-03-15T04:56:36.535Z,95387.55
2019-03-15T04:59:03.050Z,95387.22
2019-03-15T05:01:29.967Z,95385.00
2019-03-15T05:03:56.587Z,95395.98
2019-03-15T05:06:23.241Z,95401.58
2019-03-15T05:08:49.635Z,95408.53
2019-03-15T05:11:16.199Z,95405.61
2019-03-15T05:13:42.845Z,95412.09
2019-03-15T05:16:09.693Z,95416.45
2019-03-15T05:18:36.447Z,95421.83
2019-03-15T05:21:02.992Z,95421.27
2019-03-15T05:23:29.506Z,95426.33
2019-03-15T05:25:56.075Z,95418.82
2019-03-15T05:28:22.568Z,95429.57
2019-03-15T05:30:49.104Z,95436.28
2019-03-15T05:33:15.592Z,95431.79
2019-03-15T05:35:42.004Z,95430.77
2019-03-15T05:38:08.650Z,95438.59
2019-03-15T05:40:35.055Z,95446.78
2019-03-15T05:43:01.470Z,95443.86
2019-03-15T05:45:28.463Z,95448.77
2019-03-15T05:47:55.671Z,95444.97
2019-03-15T05:50:22.272Z,95456.42
2019-03-15T05:52:49.131Z,95463.58
2019-03-15T05:55:15.582Z,95466.95
2019-03-15T05:57:42.019Z,95477.73
2019-03-15T06:00:13.878Z,95479.09
2019-03-15T06:02:40.712Z,95486.98
2019-03-15T06:05:08.883Z,95489.22
2019-03-15T06:07:35.718Z,95497.20
2019-03-15T06:10:03.175Z,95493.72
2019-03-15T06:12:29.695Z,95501.57
2019-03-15T06:14:56.145Z,95503.84
2019-03-15T06:17:23.082Z,95505.20
2019-03-15T06:19:49.486Z,95519.34
2019-03-15T06:22:16.178Z,95519.92
2019-03-15T06:24:42.779Z,95522.16
2019-03-15T06:27:09.414Z,95526.11
2019-03-15T06:29:35.883Z,95519.70
2019-03-15T06:32:02.393Z,95532.72
2019-03-15T06:34:28.955Z,95528.13
2019-03-15T06:36:55.577Z,95534.06
2019-03-15T06:39:22.200Z,95538.42
2019-03-15T06:41:48.626Z,95543.80
2019-03-15T06:44:15.052Z,95558.59
2019-03-15T06:46:41.353Z,95549.19
2019-03-15T06:49:07.860Z,95543.48
2019-03-15T06:51:34.293Z,95549.97
2019-03-15T06:54:10.803Z,95562.63
2019-03-15T06:56:29.154Z,95566.98
2019-03-15T06:58:55.587Z,95566.66
2019-03-15T07:01:21.868Z,95575.75
2019-03-15T07:03:48.754Z,95574.05
2019-03-15T07:06:15.357Z,95585.05
2019-03-15T07:08:41.984Z,95575.95
2019-03-15T07:11:08.364Z,95592.88
2019-03-15T07:13:34.735Z,95601.42
2019-03-15T07:16:01.127Z,95617.70
2019-03-15T07:18:27.615Z,95621.84
2019-03-15T07:20:54.206Z,95639.48
2019-03-15T07:23:20.505Z,95641.29
2019-03-15T07:25:47.015Z,95641.41
2019-03-15T07:28:13.366Z,95652.89
2019-03-15T07:30:39.749Z,95656.39
2019-03-15T07:33:06.319Z,95665.59
2019-03-15T07:35:33.520Z,95640.81
2019-03-15T07:38:00.188Z,95641.52
2019-03-15T07:40:26.604Z,95648.26
2019-03-15T07:42:53.072Z,95657.75
2019-03-15T07:45:19.679Z,95657.78
2019-03-15T07:47:46.065Z,95658.53
2019-03-15T07:50:14.758Z,95647.34
2019-03-15T07:52:41.339Z,95651.73
2019-03-15T07:55:08.695Z,95655.08
2019-03-15T07:57:35.010Z,95653.12
2019-03-15T08:00:03.351Z,95668.14
2019-03-15T08:02:29.648Z,95658.67
2019-03-15T08:04:56.189Z,95662.69
2019-03-15T08:07:35.550Z,95660.78
2019-03-15T08:09:51.268Z,95666.41
2019-03-15T08:12:17.818Z,95671.89
2019-03-15T08:14:44.148Z,95679.44
2019-03-15T08:17:10.708Z,95686.30
2019-03-15T08:19:37.161Z,95685.14
2019-03-15T08:22:03.578Z,95684.66
2019-03-15T08:24:29.978Z,95683.70
2019-03-15T08:26:56.479Z,95686.10
2019-03-15T08:29:23.055Z,95682.72
2019-03-15T08:31:49.508Z,95682.23
2019-03-15T08:34:15.875Z,95682.68
2019-03-15T08:36:42.379Z,95688.31
2019-03-15T08:39:08.769Z,95687.18
2019-03-15T08:41:35.094Z,95690.79
2019-03-15T08:44:01.788Z,95693.27
2019-03-15T08:46:28.176Z,95689.21
2019-03-15T08:48:54.606Z,95691.28
2019-03-15T08:51:21.145Z,95688.69
2019-03-15T08:53:47.816Z,95700.97
2019-03-15T08:56:14.771Z,95695.56
2019-03-15T08:58:41.324Z,95709.75
2019-03-15T09:01:10.778Z,95717.82
2019-03-15T09:03:36.470Z,95715.78
2019-03-15T09:06:03.052Z,95720.92
2019-03-15T09:08:29.884Z,95714.41
2019-03-15T09:10:56.384Z,95721.58
2019-03-15T09:13:22.988Z,95717.84
2019-03-15T09:15:49.475Z,95710.93
2019-03-15T09:18:15.905Z,95717.13
2019-03-15T09:20:42.367Z,95721.53
2019-03-15T09:23:08.663Z,95716.49
2019-03-15T09:25:35.100Z,95719.20
2019-03-15T09:28:01.791Z,95718.75
2019-03-15T09:30:28.818Z,95723.49
2019-03-15T09:32:55.219Z,95712.45
2019-03-15T09:35:21.727Z,95723.98
2019-03-15T09:37:48.388Z,95719.26
2019-03-15T09:40:15.175Z,95719.82
2019-03-15T09:42:41.616Z,95723.88
2019-03-15T09:45:12.114Z,95724.99
2019-03-15T09:47:38.399Z,95725.78
2019-03-15T09:50:21.216Z,95732.78
2019-03-15T09:52:37.602Z,95727.86
2019-03-15T09:55:12.088Z,95732.83
2019-03-15T09:57:38.569Z,95733.95
2019-03-15T10:00:15.847Z,95732.15
2019-03-15T10:02:42.702Z,95745.45
2019-03-15T10:05:11.394Z,95751.80
2019-03-15T10:07:39.002Z,95752.28
2019-03-15T10:10:18.909Z,95754.58
2019-03-15T10:12:45.927Z,95753.81
2019-03-15T10:15:13.853Z,95751.95
2019-03-15T10:17:41.016Z,95750.63
2019-03-15T10:20:12.377Z,95754.79
2019-03-15T10:22:37.979Z,95751.42
2019-03-15T10:25:13.147Z,95748.02
2019-03-15T10:27:39.764Z,95753.08
2019-03-15T10:30:17.489Z,95756.01
2019-03-15T10:32:44.300Z,95759.61
2019-03-15T10:35:10.905Z,95766.84
2019-03-15T10:37:37.334Z,95772.46
2019-03-15T10:40:09.480Z,95777.88
2019-03-15T10:42:36.164Z,95775.88
2019-03-15T10:45:06.794Z,95775.43
2019-03-15T10:47:33.191Z,95783.77
2019-03-15T10:49:59.619Z,95783.53
2019-03-15T10:52:26.118Z,95783.98
2019-03-15T10:54:52.842Z,95787.25
2019-03-15T10:57:19.244Z,95788.38
2019-03-15T10:59:45.725Z,95795.69
2019-03-15T11:02:12.396Z,95801.09
2019-03-15T11:04:38.978Z,95804.81
2019-03-15T11:07:05.504Z,95795.23
2019-03-15T11:09:31.943Z,95793.44
2019-03-15T11:11:58.400Z,95791.55
2019-03-15T11:14:24.887Z,95793.56
2019-03-15T11:16:51.440Z,95803.80
2019-03-15T11:19:17.838Z,95791.66
2019-03-15T11:21:44.520Z,95792.67
2019-03-15T11:24:10.905Z,95793.11
2019-03-15T11:26:37.629Z,95790.95
2019-03-15T11:29:04.071Z,95785.05
2019-03-15T11:31:30.503Z,95789.52
2019-03-15T11:33:57.003Z,95780.56
2019-03-15T11:36:23.527Z,95788.75
2019-03-15T11:38:49.928Z,95788.23
2019-03-15T11:41:16.395Z,95780.48
2019-03-15T11:43:42.867Z,95774.91
2019-03-15T11:46:09.474Z,95772.19
2019-03-15T11:48:36.210Z,95770.40
2019-03-15T11:51:02.712Z,95763.06
2019-03-15T11:53:29.223Z,95759.41
2019-03-15T11:55:55.580Z,95758.25
2019-03-15T11:58:21.942Z,95753.80
2019-03-15T12:00:48.364Z,95747.33
2019-03-15T12:03:14.820Z,95747.44
2019-03-15T12:05:41.255Z,95741.65
2019-03-15T12:08:07.699Z,95753.72
2019-03-15T12:10:34.135Z,95748.73
2019-03-15T12:13:00.589Z,95743.09
2019-03-15T12:15:26.983Z,95748.30
2019-03-15T12:17:53.607Z,95743.66
2019-03-15T12:20:20.054Z,95751.48
2019-03-15T12:22:46.483Z,95754.14
2019-03-15T12:25:13.003Z,95759.12
2019-03-15T12:27:39.731Z,95755.57
2019-03-15T12:30:14.082Z,95756.48
2019-03-15T12:32:40.480Z,95756.97
2019-03-15T12:35:15.336Z,95758.61
2019-03-15T12:37:41.821Z,95759.47
2019-03-15T12:40:17.542Z,95758.94
2019-03-15T12:42:44.479Z,95755.59
2019-03-15T12:45:12.507Z,95757.52
2019-03-15T12:47:38.836Z,95753.11
2019-03-15T12:50:08.439Z,95753.95
2019-03-15T12:52:46.589Z,95752.34
2019-03-15T12:55:06.587Z,95749.56
2019-03-15T12:57:32.930Z,95747.48
2019-03-15T12:59:59.298Z,95752.86
2019-03-15T13:02:25.687Z,95757.33
2019-03-15T13:04:52.281Z,95757.33
2019-03-15T13:07:19.011Z,95752.86
2019-03-15T13:09:45.412Z,95751.41
2019-03-15T13:12:12.093Z,95743.01
2019-03-15T13:14:38.731Z,95747.11
2019-03-15T13:17:05.156Z,95748.97
2019-03-15T13:19:31.456Z,95739.05
2019-03-15T13:21:57.928Z,95740.19
2019-03-15T13:24:24.324Z,95744.69
2019-03-15T13:26:51.020Z,95747.62
2019-03-15T13:29:17.635Z,95754.11
2019-03-15T13:31:43.929Z,95753.28
2019-03-15T13:34:10.322Z,95758.28
2019-03-15T13:36:36.850Z,95759.84
2019-03-15T13:39:05.061Z,95750.71
2019-03-15T13:41:31.513Z,95750.72
2019-03-15T13:43:57.794Z,95737.42
2019-03-15T13:46:24.614Z,95738.91
2019-03-15T13:48:50.911Z,95731.19
2019-03-15T13:51:17.545Z,95727.73
2019-03-15T13:53:44.016Z,95736.09
2019-03-15T13:56:10.536Z,95724.23
2019-03-15T13:58:37.179Z,95720.95
2019-03-15T14:01:03.607Z,95725.98
2019-03-15T14:03:29.994Z,95725.55
2019-03-15T14:05:56.688Z,95729.54
2019-03-15T14:08:23.110Z,95724.63
2019-03-15T14:10:49.991Z,95724.34
2019-03-15T14:13:16.533Z,95725.34
2019-03-15T14:15:42.928Z,95726.92
2019-03-15T14:18:09.556Z,95721.35
2019-03-15T14:20:36.146Z,95721.35
2019-03-15T14:23:02.845Z,95719.12
2019-03-15T14:25:29.394Z,95708.34
2019-03-15T14:27:55.832Z,95704.88
2019-03-15T14:30:22.216Z,95723.62
2019-03-15T14:32:49.213Z,95713.66
2019-03-15T14:35:15.931Z,95718.22
2019-03-15T14:37:42.797Z,95719.31
2019-03-15T14:40:11.135Z,95722.02
2019-03-15T14:42:37.801Z,95727.74
2019-03-15T14:45:09.166Z,95729.02
2019-03-15T14:47:35.496Z,95735.73
2019-03-15T14:50:05.695Z,95727.23
2019-03-15T14:52:36.016Z,95729.72
2019-03-15T14:55:08.095Z,95722.86
2019-03-15T14:57:34.719Z,95721.64
2019-03-15T15:00:01.109Z,95716.42
2019-03-15T15:02:27.439Z,95717.02
2019-03-15T15:04:53.901Z,95710.53
2019-03-15T15:07:20.251Z,95702.92
2019-03-15T15:09:47.636Z,95706.31
2019-03-15T15:12:14.281Z,95702.95
2019-03-15T15:14:40.569Z,95693.63
2019-03-15T15:17:07.355Z,95684.84
2019-03-15T15:19:33.946Z,95685.76
2019-03-15T15:22:00.582Z,95688.27
2019-03-15T15:24:26.979Z,95685.69
2019-03-15T15:26:53.380Z,95683.90
2019-03-15T15:29:21.998Z,95676.84
2019-03-15T15:31:48.164Z,95685.31
2019-03-15T15:34:14.584Z,95684.23
2019-03-15T15:36:41.333Z,95690.12
2019-03-15T15:39:08.037Z,95678.06
2019-03-15T15:41:34.462Z,95684.61
2019-03-15T15:44:01.992Z,95682.27
2019-03-15T15:46:28.621Z,95686.11
2019-03-15T15:48:54.903Z,95678.12
2019-03-15T15:51:22.188Z,95676.77
2019-03-15T15:53:49.180Z,95677.89
2019-03-15T15:56:15.647Z,95682.52
2019-03-15T15:58:42.402Z,95684.38
2019-03-15T16:01:09.038Z,95690.47
2019-03-15T16:03:35.463Z,95687.92
2019-03-15T16:06:01.987Z,95690.75
2019-03-15T16:08:28.424Z,95685.80
2019-03-15T16:10:54.813Z,95686.29
2019-03-15T16:13:21.836Z,95686.19
2019-03-15T16:15:48.352Z,95677.22
2019-03-15T16:18:16.527Z,95673.06
2019-03-15T16:20:42.947Z,95669.38
2019-03-15T16:23:09.403Z,95680.09
2019-03-15T16:25:35.811Z,95675.36
2019-03-15T16:28:02.215Z,95664.25
2019-03-15T16:30:28.731Z,95667.08
2019-03-15T16:32:55.335Z,95667.34
2019-03-15T16:35:21.742Z,95665.77
2019-03-15T16:37:48.320Z,95671.66
2019-03-15T16:40:15.342Z,95666.13
2019-03-15T16:42:41.874Z,95676.63
2019-03-15T16:45:16.283Z,95680.13
2019-03-15T16:47:42.733Z,95671.50
2019-03-15T16:50:11.528Z,95682.57
2019-03-15T16:52:37.955Z,95685.84
2019-03-15T16:55:08.523Z,95685.45
2019-03-15T16:57:35.248Z,95675.09
2019-03-15T17:00:02.161Z,95672.28
2019-03-15T17:02:28.722Z,95664.66
2019-03-15T17:04:55.004Z,95659.52
2019-03-15T17:07:21.334Z,95655.58
2019-03-15T17:09:47.863Z,95665.48
2019-03-15T17:12:14.381Z,95660.78
2019-03-15T17:14:40.702Z,95647.84
2019-03-15T17:17:07.156Z,95641.99
2019-03-15T17:19:33.643Z,95642.55
2019-03-15T17:21:59.962Z,95637.16
2019-03-15T17:24:26.486Z,95636.36
2019-03-15T17:26:53.024Z,95629.39
2019-03-15T17:29:19.600Z,95621.52
2019-03-15T17:31:46.104Z,95613.30
2019-03-15T17:34:12.519Z,95609.81
2019-03-15T17:36:38.974Z,95610.03
2019-03-15T17:39:06.014Z,95635.23
2019-03-15T17:41:32.421Z,95633.66
2019-03-15T17:43:58.883Z,95623.31
2019-03-15T17:46:25.221Z,95623.31
2019-03-15T17:48:51.749Z,95613.86
2019-03-15T17:51:20.725Z,95619.83
2019-03-15T17:53:46.590Z,95612.28
2019-03-15T17:56:13.081Z,95607.22
2019-03-15T17:58:39.504Z,95610.06
2019-03-15T18:01:05.936Z,95614.91
2019-03-15T18:03:32.353Z,95612.77
2019-03-15T18:05:58.864Z,95593.19
2019-03-15T18:08:25.283Z,95590.49
2019-03-15T18:10:51.798Z,95576.32
2019-03-15T18:13:18.415Z,95577.47
2019-03-15T18:15:44.808Z,95594.02
2019-03-15T18:18:11.341Z,95594.58
2019-03-15T18:20:37.829Z,95610.44
2019-03-15T18:23:04.595Z,95607.96
2019-03-15T18:25:56.350Z,95613.44
2019-03-15T18:28:22.739Z,95603.31
2019-03-15T18:30:49.083Z,95593.38
2019-03-15T18:33:15.397Z,95594.05
2019-03-15T18:35:41.936Z,95593.91
2019-03-15T18:38:08.240Z,95594.58
2019-03-15T18:40:34.660Z,95589.52
2019-03-15T18:43:01.535Z,95588.80
2019-03-15T18:45:28.058Z,95589.89
2019-03-15T18:47:54.490Z,95589.44
2019-03-15T18:50:28.823Z,95594.72
2019-03-15T18:52:55.523Z,95593.22
2019-03-15T18:55:21.954Z,95599.98
2019-03-15T18:57:48.631Z,95605.61
2019-03-15T19:00:23.164Z,95609.88
2019-03-15T19:02:49.781Z,95620.47
2019-03-15T19:05:16.239Z,95621.03
2019-03-15T19:07:43.001Z,95625.87
2019-03-15T19:10:13.969Z,95620.69
2019-03-15T19:12:40.381Z,95606.52
2019-03-15T19:15:16.334Z,95620.02
2019-03-15T19:17:42.745Z,95621.86
2019-03-15T19:20:13.172Z,95623.55
2019-03-15T19:22:39.675Z,95615.14
2019-03-15T19:25:08.839Z,95625.27
2019-03-15T19:27:35.124Z,95627.11
2019-03-15T19:30:03.006Z,95615.41
2019-03-15T19:32:29.383Z,95615.66
2019-03-15T19:34:55.725Z,95612.99
2019-03-15T19:37:22.099Z,95596.45
2019-03-15T19:39:48.431Z,95597.05
2019-03-15T19:42:14.864Z,95604.39
2019-03-15T19:44:41.405Z,95582.03
2019-03-15T19:47:07.724Z,95589.01
2019-03-15T19:49:34.047Z,95602.75
2019-03-15T19:52:00.373Z,95592.77
2019-03-15T19:54:26.953Z,95583.77
2019-03-15T19:56:53.369Z,95582.45
2019-03-15T19:59:19.670Z,95580.55
2019-03-15T20:01:46.096Z,95569.42
2019-03-15T20:04:12.517Z,95563.72
2019-03-15T20:06:38.962Z,95564.16
2019-03-15T20:09:06.352Z,95564.63
2019-03-15T20:11:32.721Z,95545.77
2019-03-15T20:13:59.299Z,95559.14
2019-03-15T20:16:25.911Z,95531.30
2019-03-15T20:18:52.236Z,95529.60
2019-03-15T20:21:18.548Z,95540.16
2019-03-15T20:23:44.879Z,95539.28
2019-03-15T20:26:11.207Z,95540.86
2019-03-15T20:28:37.507Z,95525.02
2019-03-15T20:31:03.985Z,95520.19
2019-03-15T20:33:30.268Z,95519.40
2019-03-15T20:35:56.776Z,95518.05
2019-03-15T20:38:23.163Z,95522.42
2019-03-15T20:40:49.605Z,95500.86
2019-03-15T20:43:15.901Z,95531.20
2019-03-15T20:45:42.335Z,95520.86
2019-03-15T20:48:08.748Z,95522.63
2019-03-15T20:50:46.163Z,95528.48
2019-03-15T20:53:09.793Z,95514.33
2019-03-15T20:55:31.958Z,95505.31
2019-03-15T20:57:58.528Z,95494.19
2019-03-15T21:00:34.721Z,95501.72
2019-03-15T21:02:53.343Z,95505.99
2019-03-15T21:05:19.749Z,95508.91
2019-03-15T21:07:46.071Z,95501.47
2019-03-15T21:10:16.761Z,95468.35
2019-03-15T21:12:43.506Z,95458.77
2019-03-15T21:15:13.170Z,95474.06
2019-03-15T21:17:39.469Z,95454.70
2019-03-15T21:20:12.145Z,95462.67
2019-03-15T21:22:38.450Z,95470.44
2019-03-15T21:25:07.709Z,95474.70
2019-03-15T21:27:34.250Z,95464.47
2019-03-15T21:30:00.863Z,95452.67
2019-03-15T21:32:27.220Z,95444.81
2019-03-15T21:34:53.838Z,95439.30
2019-03-15T21:37:20.140Z,95422.70
2019-03-15T21:39:46.574Z,95413.37
2019-03-15T21:42:13.056Z,95417.20
2019-03-15T21:44:39.367Z,95420.12
2019-03-15T21:47:05.661Z,95414.72
2019-03-15T21:49:35.189Z,95411.24
2019-03-15T21:52:00.575Z,95408.43
2019-03-15T21:54:26.912Z,95394.61
2019-03-15T21:56:53.205Z,95386.15
2019-03-15T21:59:19.528Z,95389.30
2019-03-15T22:01:45.867Z,95381.77
2019-03-15T22:04:12.521Z,95377.83
2019-03-15T22:06:39.153Z,95369.02
2019-03-15T22:09:06.287Z,95358.80
2019-03-15T22:11:32.607Z,95350.59
2019-03-15T22:13:58.941Z,95354.37
2019-03-15T22:16:25.235Z,95354.13
2019-03-15T22:18:51.818Z,95340.59
2019-03-15T22:21:18.448Z,95337.63
2019-03-15T22:23:44.875Z,95329.97
2019-03-15T22:26:11.441Z,95328.50
2019-03-15T22:28:37.834Z,95318.34
2019-03-15T22:31:15.845Z,95300.20
2019-03-15T22:33:32.378Z,95293.06
2019-03-15T22:35:59.089Z,95281.19
2019-03-15T22:38:26.812Z,95272.03
2019-03-15T22:40:53.279Z,95277.08
2019-03-15T22:43:19.574Z,95275.11
2019-03-15T22:45:46.079Z,95259.69
2019-03-15T22:48:12.614Z,95267.00
2019-03-15T22:50:39.128Z,95269.70
2019-03-15T22:53:05.446Z,95273.53
2019-03-15T22:55:31.655Z,95269.05
2019-03-15T22:58:00.224Z,95272.44
2019-03-15T23:00:36.606Z,95272.59
2019-03-15T23:03:04.208Z,95275.07
2019-03-15T23:05:30.635Z,95277.20
2019-03-15T23:07:57.170Z,95276.08
2019-03-15T23:10:23.718Z,95268.39
2019-03-15T23:12:50.073Z,95267.48
2019-03-15T23:15:16.659Z,95267.13
2019-03-15T23:17:42.947Z,95255.98
2019-03-15T23:20:11.603Z,95249.08
2019-03-15T23:22:38.094Z,95253.91
2019-03-15T23:25:05.707Z,95266.72
2019-03-15T23:27:32.180Z,95271.77
2019-03-15T23:29:58.670Z,95274.75
2019-03-15T23:32:25.102Z,95285.08
2019-03-15T23:34:51.651Z,95285.71
2019-03-15T23:37:18.053Z,95284.45
2019-03-15T23:39:44.603Z,95277.92
2019-03-15T23:42:11.052Z,95288.38
2019-03-15T23:44:37.356Z,95276.00
2019-03-15T23:47:03.872Z,95279.83
2019-03-15T23:49:30.270Z,95277.83
2019-03-15T23:51:56.577Z,95306.63
2019-03-15T23:54:23.239Z,95370.88
2019-03-15T23:56:49.735Z,95386.95
2019-03-15T23:59:16.133Z,95388.15
